createdAt,value
2022-10-19T00:00:14.932Z,134.90
2022-10-19T00:01:14.912Z,134.79
2022-10-19T00:02:14.984Z,135.78
2022-10-19T00:03:18.261Z,136.11
2022-10-19T00:04:16.096Z,135.45
2022-10-19T00:05:14.873Z,136.00
2022-10-19T00:06:14.856Z,136.67
2022-10-19T00:07:14.847Z,137.12
2022-10-19T00:08:14.854Z,137.01
2022-10-19T00:09:14.981Z,138.37
2022-10-19T00:10:14.830Z,138.71
2022-10-19T00:11:14.800Z,139.29
2022-10-19T00:12:14.795Z,140.70
2022-10-19T00:13:14.780Z,140.94
2022-10-19T00:14:14.942Z,142.51
2022-10-19T00:15:14.766Z,141.90
2022-10-19T00:16:14.779Z,142.14
2022-10-19T00:17:14.730Z,142.99
2022-10-19T00:18:14.735Z,142.14
2022-10-19T00:19:14.925Z,142.87
2022-10-19T00:20:14.920Z,142.26
2022-10-19T00:21:14.719Z,142.26
2022-10-19T00:22:14.691Z,142.63
2022-10-19T00:23:14.680Z,142.51
2022-10-19T00:24:14.838Z,142.87
2022-10-19T00:25:14.652Z,143.61
2022-10-19T00:26:14.649Z,142.87
2022-10-19T00:27:14.631Z,143.36
2022-10-19T00:28:14.621Z,144.23
2022-10-19T00:29:14.713Z,144.86
2022-10-19T00:30:14.760Z,143.86
2022-10-19T00:31:14.592Z,144.11
2022-10-19T00:32:14.590Z,144.86
2022-10-19T00:33:14.560Z,145.62
2022-10-19T00:34:14.551Z,144.48
2022-10-19T00:35:14.550Z,144.73
2022-10-19T00:36:14.761Z,144.35
2022-10-19T00:37:14.531Z,144.48
2022-10-19T00:38:14.520Z,144.11
2022-10-19T00:39:14.515Z,144.11
2022-10-19T00:40:14.490Z,143.98
2022-10-19T00:41:14.480Z,144.48
2022-10-19T00:42:14.650Z,144.98
2022-10-19T00:43:14.453Z,145.36
2022-10-19T00:44:14.451Z,146.00
2022-10-19T00:45:14.435Z,146.12
2022-10-19T00:46:14.424Z,146.25
2022-10-19T00:47:14.419Z,147.03
2022-10-19T00:48:14.564Z,146.38
2022-10-19T00:49:14.416Z,145.74
2022-10-19T00:50:14.561Z,145.49
2022-10-19T00:51:14.384Z,145.36
2022-10-19T00:52:14.361Z,144.23
2022-10-19T00:53:14.361Z,143.98
2022-10-19T00:54:14.352Z,143.73
2022-10-19T00:55:14.332Z,143.36
2022-10-19T00:56:14.494Z,142.99
2022-10-19T00:57:14.300Z,143.98
2022-10-19T00:58:14.305Z,143.98
2022-10-19T00:59:14.285Z,144.86
2022-10-19T01:00:14.270Z,144.73
2022-10-19T01:01:14.278Z,145.11
2022-10-19T01:02:14.449Z,144.73
2022-10-19T01:03:14.245Z,143.86
2022-10-19T01:04:14.225Z,144.11
2022-10-19T01:05:14.220Z,144.73
2022-10-19T01:06:14.209Z,143.98
2022-10-19T01:07:14.189Z,143.73
2022-10-19T01:08:14.355Z,144.35
2022-10-19T01:09:14.173Z,145.11
2022-10-19T01:10:14.167Z,145.23
2022-10-19T01:11:14.174Z,145.23
2022-10-19T01:12:14.134Z,145.49
2022-10-19T01:13:14.130Z,145.49
2022-10-19T01:14:14.290Z,145.23
2022-10-19T01:15:14.124Z,145.23
2022-10-19T01:16:14.090Z,144.86
2022-10-19T01:17:14.084Z,145.49
2022-10-19T01:18:14.072Z,144.98
2022-10-19T01:19:14.060Z,144.73
2022-10-19T01:20:14.212Z,143.86
2022-10-19T01:21:14.044Z,143.49
2022-10-19T01:22:14.039Z,143.61
2022-10-19T01:23:14.027Z,142.87
2022-10-19T01:24:14.019Z,143.73
2022-10-19T01:25:14.160Z,142.99
2022-10-19T01:26:13.989Z,142.99
2022-10-19T01:27:13.980Z,142.51
2022-10-19T01:28:13.979Z,142.99
2022-10-19T01:29:14.139Z,143.12
2022-10-19T01:30:13.946Z,143.61
2022-10-19T01:31:13.929Z,143.49
2022-10-19T01:32:13.915Z,143.36
2022-10-19T01:33:13.909Z,143.98
2022-10-19T01:34:13.901Z,143.61
2022-10-19T01:35:14.100Z,143.49
2022-10-19T01:36:13.879Z,143.73
2022-10-19T01:37:13.882Z,143.86
2022-10-19T01:38:13.853Z,143.49
2022-10-19T01:39:13.850Z,143.61
2022-10-19T01:40:13.990Z,143.61
2022-10-19T01:41:13.829Z,143.24
2022-10-19T01:42:13.808Z,142.99
2022-10-19T01:43:13.799Z,142.38
2022-10-19T01:44:13.790Z,142.14
2022-10-19T01:45:13.950Z,141.18
2022-10-19T01:46:13.760Z,140.35
2022-10-19T01:47:13.759Z,140.70
2022-10-19T01:48:13.750Z,137.91
2022-10-19T01:49:13.739Z,139.41
2022-10-19T01:50:13.727Z,138.03
2022-10-19T01:51:13.876Z,137.91
2022-10-19T01:52:13.714Z,137.80
2022-10-19T01:53:13.689Z,137.23
2022-10-19T01:54:13.689Z,137.46
2022-10-19T01:55:13.677Z,137.68
2022-10-19T01:56:13.820Z,137.23
2022-10-19T01:57:13.649Z,136.56
2022-10-19T01:58:13.640Z,136.45
2022-10-19T01:59:13.635Z,136.34
2022-10-19T02:00:13.617Z,135.78
2022-10-19T02:01:13.604Z,134.90
2022-10-19T02:02:13.820Z,134.58
2022-10-19T02:03:13.588Z,134.04
2022-10-19T02:04:13.569Z,133.39
2022-10-19T02:05:13.558Z,133.29
2022-10-19T02:06:13.557Z,131.50
2022-10-19T02:07:13.539Z,132.12
2022-10-19T02:08:13.686Z,132.23
2022-10-19T02:09:13.518Z,131.60
2022-10-19T02:11:13.498Z,131.09
2022-10-19T02:12:13.479Z,130.57
2022-10-19T02:13:13.628Z,130.88
2022-10-19T02:14:13.459Z,131.50
2022-10-19T02:15:13.451Z,130.57
2022-10-19T02:16:13.436Z,130.17
2022-10-19T02:17:13.434Z,131.19
2022-10-19T02:18:13.419Z,130.68
2022-10-19T02:19:13.591Z,130.37
2022-10-19T02:20:13.392Z,129.46
2022-10-19T02:21:13.548Z,129.36
2022-10-19T02:22:13.377Z,128.76
2022-10-19T02:23:13.368Z,129.96
2022-10-19T02:24:13.358Z,128.86
2022-10-19T02:25:13.508Z,127.78
2022-10-19T02:26:13.334Z,127.19
2022-10-19T02:27:13.448Z,127.58
2022-10-19T02:28:13.359Z,126.42
2022-10-19T02:29:13.315Z,126.80
2022-10-19T02:30:13.285Z,126.52
2022-10-19T02:31:13.443Z,126.42
2022-10-19T02:32:13.267Z,126.42
2022-10-19T02:33:13.262Z,127.09
2022-10-19T02:34:13.238Z,127.48
2022-10-19T02:35:13.258Z,128.56
2022-10-19T02:36:13.393Z,127.97
2022-10-19T02:37:13.293Z,127.97
2022-10-19T02:38:13.212Z,128.96
2022-10-19T02:39:13.188Z,129.06
2022-10-19T02:40:13.178Z,129.76
2022-10-19T02:41:13.178Z,129.56
2022-10-19T02:42:13.387Z,129.36
2022-10-19T02:43:13.148Z,129.66
2022-10-19T02:44:13.127Z,129.06
2022-10-19T02:45:13.283Z,128.86
2022-10-19T02:46:13.117Z,128.96
2022-10-19T02:47:13.109Z,128.56
2022-10-19T02:48:13.087Z,127.19
2022-10-19T02:49:13.083Z,127.78
2022-10-19T02:50:13.238Z,128.07
2022-10-19T02:51:13.068Z,128.07
2022-10-19T02:52:13.056Z,126.52
2022-10-19T02:53:13.037Z,126.71
2022-10-19T02:54:13.019Z,126.13
2022-10-19T02:55:13.187Z,125.85
2022-10-19T02:56:12.998Z,125.38
2022-10-19T02:57:12.998Z,124.72
2022-10-19T02:58:12.978Z,124.25
2022-10-19T02:59:12.966Z,123.52
2022-10-19T03:00:12.959Z,123.34
2022-10-19T03:01:13.144Z,122.34
2022-10-19T03:02:12.937Z,121.54
2022-10-19T03:03:13.093Z,121.19
2022-10-19T03:04:12.907Z,120.31
2022-10-19T03:05:12.897Z,121.01
2022-10-19T03:06:12.887Z,121.54
2022-10-19T03:07:12.877Z,120.49
2022-10-19T03:08:12.868Z,120.92
2022-10-19T03:09:13.030Z,120.66
2022-10-19T03:10:12.849Z,120.75
2022-10-19T03:11:12.836Z,120.84
2022-10-19T03:12:12.827Z,120.92
2022-10-19T03:13:12.817Z,120.92
2022-10-19T03:14:12.806Z,120.40
2022-10-19T03:15:12.967Z,119.11
2022-10-19T03:16:12.779Z,119.54
2022-10-19T03:17:12.775Z,118.77
2022-10-19T03:18:12.768Z,118.18
2022-10-19T03:19:12.746Z,118.10
2022-10-19T03:20:12.896Z,118.27
2022-10-19T03:21:12.739Z,118.43
2022-10-19T03:22:12.715Z,118.18
2022-10-19T03:23:12.708Z,118.86
2022-10-19T03:24:12.696Z,119.54
2022-10-19T03:25:12.698Z,119.79
2022-10-19T03:26:12.839Z,119.79
2022-10-19T03:27:12.673Z,120.23
2022-10-19T03:28:12.657Z,119.20
2022-10-19T03:29:12.645Z,119.62
2022-10-19T03:30:12.627Z,120.05
2022-10-19T03:31:12.826Z,119.97
2022-10-19T03:32:12.606Z,119.37
2022-10-19T03:33:12.628Z,120.31
2022-10-19T03:34:12.591Z,119.11
2022-10-19T03:35:12.582Z,119.28
2022-10-19T03:36:12.566Z,118.77
2022-10-19T03:37:12.715Z,118.60
2022-10-19T03:38:12.546Z,118.86
2022-10-19T03:39:12.531Z,118.10
2022-10-19T03:40:12.532Z,118.60
2022-10-19T03:41:12.604Z,118.60
2022-10-19T03:42:12.666Z,118.52
2022-10-19T03:43:12.485Z,117.77
2022-10-19T03:44:12.476Z,118.18
2022-10-19T03:45:12.472Z,117.43
2022-10-19T03:46:12.457Z,117.52
2022-10-19T03:47:12.458Z,117.02
2022-10-19T03:48:12.615Z,117.43
2022-10-19T03:49:12.424Z,116.78
2022-10-19T03:50:12.407Z,116.61
2022-10-19T03:51:12.399Z,116.78
2022-10-19T03:52:12.394Z,116.37
2022-10-19T03:53:12.377Z,116.94
2022-10-19T03:54:12.563Z,116.21
2022-10-19T03:55:12.361Z,116.45
2022-10-19T03:56:12.345Z,115.89
2022-10-19T03:57:12.346Z,116.21
2022-10-19T03:58:12.327Z,116.13
2022-10-19T03:59:12.316Z,115.25
2022-10-19T04:00:12.526Z,115.09
2022-10-19T04:01:12.337Z,114.85
2022-10-19T04:02:12.276Z,114.77
2022-10-19T04:03:12.265Z,114.22
2022-10-19T04:04:12.258Z,113.75
2022-10-19T04:05:12.255Z,113.52
2022-10-19T04:06:12.404Z,113.60
2022-10-19T04:07:12.235Z,113.06
2022-10-19T04:08:12.213Z,112.75
2022-10-19T04:09:12.206Z,112.53
2022-10-19T04:10:12.208Z,112.15
2022-10-19T04:11:12.185Z,112.07
2022-10-19T04:12:12.407Z,111.55
2022-10-19T04:13:12.168Z,111.25
2022-10-19T04:14:15.992Z,110.73
2022-10-19T04:15:13.144Z,111.32
2022-10-19T04:16:12.136Z,110.15
2022-10-19T04:17:12.274Z,109.50
2022-10-19T04:18:12.265Z,109.14
2022-10-19T04:19:12.110Z,108.86
2022-10-19T04:20:12.093Z,108.57
2022-10-19T04:21:12.084Z,107.80
2022-10-19T04:22:12.062Z,107.87
2022-10-19T04:23:12.148Z,107.45
2022-10-19T04:24:12.319Z,107.45
2022-10-19T04:25:12.035Z,106.97
2022-10-19T04:26:12.015Z,106.49
2022-10-19T04:27:12.007Z,105.89
2022-10-19T04:28:11.994Z,106.43
2022-10-19T04:29:12.042Z,106.29
2022-10-19T04:30:11.994Z,105.42
2022-10-19T04:31:11.966Z,104.95
2022-10-19T04:32:11.951Z,105.08
2022-10-19T04:33:11.970Z,105.08
2022-10-19T04:34:11.927Z,104.89
2022-10-19T04:35:11.970Z,104.43
2022-10-19T04:36:11.934Z,104.30
2022-10-19T04:37:11.909Z,104.49
2022-10-19T04:38:11.890Z,104.10
2022-10-19T04:39:11.874Z,104.56
2022-10-19T04:40:14.961Z,104.49
2022-10-19T04:41:12.047Z,104.23
2022-10-19T04:42:11.855Z,104.62
2022-10-19T04:43:11.834Z,104.69
2022-10-19T04:44:11.855Z,104.82
2022-10-19T04:45:11.834Z,103.91
2022-10-19T04:46:11.794Z,104.10
2022-10-19T04:47:12.006Z,104.62
2022-10-19T04:48:14.628Z,104.23
2022-10-19T04:50:38.766Z,104.69
2022-10-19T04:50:50.049Z,102.13
2022-10-19T05:00:20.746Z,175.84
2022-10-19T05:01:20.921Z,158.78
2022-10-19T05:02:20.703Z,149.26
2022-10-19T05:03:20.724Z,142.99
2022-10-19T05:04:20.901Z,137.91
2022-10-19T05:05:20.696Z,135.12
2022-10-19T05:06:20.672Z,131.19
2022-10-19T05:07:20.893Z,129.46
2022-10-19T05:08:20.654Z,127.09
2022-10-19T05:09:20.631Z,125.28
2022-10-19T05:10:20.658Z,123.34
2022-10-19T05:11:20.643Z,122.52
2022-10-19T05:12:20.598Z,121.54
2022-10-19T05:13:20.750Z,119.79
2022-10-19T05:14:20.646Z,118.10
2022-10-19T05:15:20.563Z,117.68
2022-10-19T05:16:20.567Z,117.11
2022-10-19T05:17:20.759Z,116.78
2022-10-19T05:18:20.541Z,114.69
2022-10-19T05:19:20.682Z,115.09
2022-10-19T05:20:20.808Z,114.53
2022-10-19T05:21:20.820Z,113.75
2022-10-19T05:22:21.112Z,112.75
2022-10-19T05:23:20.542Z,112.98
2022-10-19T05:24:20.479Z,112.07
2022-10-19T05:25:20.474Z,111.70
2022-10-19T05:26:20.455Z,111.55
2022-10-19T05:27:20.466Z,111.18
2022-10-19T05:28:20.630Z,110.81
2022-10-19T05:29:20.411Z,110.73
2022-10-19T05:30:20.412Z,110.29
2022-10-19T05:31:20.427Z,110.15
2022-10-19T05:32:20.451Z,109.86
2022-10-19T05:33:20.559Z,110.00
2022-10-19T05:34:20.362Z,109.64
2022-10-19T05:35:22.428Z,109.57
2022-10-19T05:36:20.341Z,109.00
2022-10-19T05:37:20.330Z,109.07
2022-10-19T05:38:20.319Z,108.93
2022-10-19T05:39:20.471Z,108.57
2022-10-19T05:40:20.485Z,108.43
2022-10-19T05:41:20.291Z,108.29
2022-10-19T05:42:20.296Z,108.29
2022-10-19T05:43:20.263Z,108.08
2022-10-19T05:44:20.250Z,108.22
2022-10-19T05:45:20.250Z,107.18
2022-10-19T05:46:20.510Z,107.66
2022-10-19T05:47:20.230Z,106.90
2022-10-19T05:48:20.281Z,106.56
2022-10-19T05:49:20.201Z,106.49
2022-10-19T05:50:20.180Z,106.90
2022-10-19T05:51:20.171Z,106.22
2022-10-19T05:52:20.328Z,106.63
2022-10-19T05:53:20.172Z,106.49
2022-10-19T05:54:21.860Z,105.82
2022-10-19T05:55:20.134Z,105.75
2022-10-19T05:56:20.121Z,106.29
2022-10-19T05:57:20.279Z,105.68
2022-10-19T05:58:20.103Z,105.95
2022-10-19T05:59:20.087Z,105.28
2022-10-19T06:00:20.074Z,105.68
2022-10-19T06:01:20.082Z,105.68
2022-10-19T06:02:20.061Z,105.82
2022-10-19T06:03:20.422Z,105.82
2022-10-19T06:04:20.209Z,106.09
2022-10-19T06:05:20.039Z,106.02
2022-10-19T06:06:20.017Z,106.22
2022-10-19T06:07:20.000Z,106.43
2022-10-19T06:08:19.985Z,105.68
2022-10-19T06:09:20.139Z,105.82
2022-10-19T06:10:19.970Z,106.29
2022-10-19T06:11:20.007Z,106.49
2022-10-19T06:12:22.859Z,106.43
2022-10-19T06:13:20.937Z,105.28
2022-10-19T06:14:19.925Z,105.95
2022-10-19T06:15:20.098Z,106.36
2022-10-19T06:16:19.899Z,105.89
2022-10-19T06:17:19.889Z,106.15
2022-10-19T06:18:19.880Z,106.22
2022-10-19T06:19:19.939Z,107.18
2022-10-19T06:20:19.865Z,107.11
2022-10-19T06:21:20.013Z,108.29
2022-10-19T06:22:19.843Z,108.29
2022-10-19T06:23:19.841Z,109.21
2022-10-19T06:24:19.808Z,109.14
2022-10-19T06:25:20.463Z,109.79
2022-10-19T06:26:19.999Z,110.22
2022-10-19T06:27:19.825Z,110.51
2022-10-19T06:28:19.779Z,111.32
2022-10-19T06:29:19.770Z,111.55
2022-10-19T06:30:19.776Z,111.92
2022-10-19T06:31:19.769Z,112.37
2022-10-19T06:32:19.928Z,112.83
2022-10-19T06:33:19.728Z,112.83
2022-10-19T06:34:19.750Z,112.68
2022-10-19T06:35:19.705Z,112.68
2022-10-19T06:36:19.680Z,112.15
2022-10-19T06:37:19.673Z,112.22
2022-10-19T06:38:19.818Z,112.07
2022-10-19T06:39:19.649Z,112.07
2022-10-19T06:40:19.689Z,111.92
2022-10-19T06:41:19.627Z,112.22
2022-10-19T06:42:19.622Z,112.75
2022-10-19T06:43:20.184Z,112.37
2022-10-19T06:44:20.359Z,113.60
2022-10-19T06:45:19.582Z,114.06
2022-10-19T06:46:19.745Z,115.32
2022-10-19T06:47:19.582Z,114.77
2022-10-19T06:48:19.573Z,115.96
2022-10-19T06:49:19.547Z,116.13
2022-10-19T06:50:19.538Z,117.27
2022-10-19T06:51:19.685Z,116.94
2022-10-19T06:52:19.508Z,118.35
2022-10-19T06:53:19.505Z,118.94
2022-10-19T06:54:19.762Z,119.45
2022-10-19T06:55:19.480Z,119.20
2022-10-19T06:56:19.477Z,120.05
2022-10-19T06:57:19.448Z,120.05
2022-10-19T06:58:19.447Z,120.92
2022-10-19T06:59:19.429Z,120.31
2022-10-19T07:00:19.639Z,120.57
2022-10-19T07:01:19.432Z,120.92
2022-10-19T07:02:19.418Z,120.14
2022-10-19T07:03:19.396Z,121.10
2022-10-19T07:04:19.373Z,121.54
2022-10-19T07:05:19.369Z,120.92
2022-10-19T07:06:19.533Z,121.63
2022-10-19T07:07:19.344Z,122.97
2022-10-19T07:08:19.348Z,124.25
2022-10-19T07:09:19.318Z,124.53
2022-10-19T07:10:19.318Z,125.19
2022-10-19T07:11:19.306Z,125.85
2022-10-19T07:12:19.478Z,126.32
2022-10-19T07:13:19.279Z,127.09
2022-10-19T07:14:19.277Z,128.46
2022-10-19T07:15:19.268Z,128.96
2022-10-19T07:16:21.034Z,130.07
2022-10-19T07:17:19.236Z,130.99
2022-10-19T07:18:19.586Z,132.12
2022-10-19T07:19:19.221Z,133.18
2022-10-19T07:20:19.207Z,133.93
2022-10-19T07:21:19.199Z,134.25
2022-10-19T07:22:23.223Z,134.68
2022-10-19T07:23:20.336Z,136.22
2022-10-19T07:24:19.478Z,136.56
2022-10-19T07:25:19.157Z,136.67
2022-10-19T07:26:19.137Z,137.12
2022-10-19T07:27:19.160Z,138.60
2022-10-19T07:28:19.119Z,139.06
2022-10-19T07:29:19.136Z,138.60
2022-10-19T07:30:19.306Z,139.29
2022-10-19T07:31:19.077Z,138.71
2022-10-19T07:32:19.077Z,139.41
2022-10-19T07:33:19.061Z,139.88
2022-10-19T07:34:19.052Z,139.99
2022-10-19T07:35:19.056Z,139.99
2022-10-19T07:36:19.185Z,139.88
2022-10-19T07:37:19.018Z,140.59
2022-10-19T07:38:19.226Z,141.06
2022-10-19T07:39:18.988Z,141.54
2022-10-19T07:40:18.983Z,140.59
2022-10-19T07:41:18.973Z,140.35
2022-10-19T07:42:19.022Z,141.54
2022-10-19T07:43:18.948Z,140.82
2022-10-19T07:44:19.120Z,140.82
2022-10-19T07:45:18.935Z,142.02
2022-10-19T07:46:18.925Z,142.02
2022-10-19T07:47:18.926Z,142.26
2022-10-19T07:48:18.926Z,142.75
2022-10-19T07:49:19.199Z,143.24
2022-10-19T07:50:18.877Z,145.62
2022-10-19T07:51:18.942Z,146.77
2022-10-19T07:52:18.854Z,149.13
2022-10-19T07:53:18.848Z,149.66
2022-10-19T07:54:18.846Z,149.66
2022-10-19T07:55:19.005Z,149.93
2022-10-19T07:56:18.811Z,150.20
2022-10-19T07:57:18.796Z,149.93
2022-10-19T07:58:18.795Z,151.29
2022-10-19T07:59:18.775Z,151.98
2022-10-19T08:00:19.026Z,151.57
2022-10-19T08:01:18.745Z,151.84
2022-10-19T08:02:18.829Z,153.10
2022-10-19T08:04:13.819Z,152.54
2022-10-19T08:05:20.015Z,153.38
2022-10-19T08:06:18.706Z,153.24
2022-10-19T08:07:18.684Z,153.10
2022-10-19T08:08:18.674Z,152.68
2022-10-19T08:09:47.251Z,152.40
2022-10-19T08:10:19.656Z,152.82
2022-10-19T08:11:18.943Z,151.84
2022-10-19T08:12:18.639Z,151.84
2022-10-19T08:13:18.626Z,150.61
2022-10-19T08:14:18.651Z,149.26
2022-10-19T08:15:18.604Z,149.93
2022-10-19T08:16:18.589Z,150.07
2022-10-19T08:17:18.780Z,149.80
2022-10-19T08:18:18.599Z,149.53
2022-10-19T08:19:18.577Z,148.99
2022-10-19T08:20:18.552Z,147.81
2022-10-19T08:21:18.557Z,148.07
2022-10-19T08:22:18.514Z,148.07
2022-10-19T08:23:18.786Z,150.07
2022-10-19T08:24:18.503Z,151.02
2022-10-19T08:25:18.498Z,152.40
2022-10-19T08:26:18.483Z,153.66
2022-10-19T08:27:18.509Z,153.52
2022-10-19T08:28:18.479Z,153.52
2022-10-19T08:29:18.721Z,154.23
2022-10-19T08:30:18.440Z,154.23
2022-10-19T08:31:18.445Z,153.66
2022-10-19T08:32:18.539Z,155.96
2022-10-19T08:33:18.425Z,157.28
2022-10-19T08:34:18.450Z,159.38
2022-10-19T08:35:18.755Z,161.54
2022-10-19T08:36:18.364Z,162.96
2022-10-19T08:37:26.298Z,165.06
2022-10-19T08:38:19.349Z,165.39
2022-10-19T08:39:18.360Z,165.22
2022-10-19T08:40:18.340Z,165.55
2022-10-19T08:41:18.515Z,165.22
2022-10-19T08:42:18.318Z,168.56
2022-10-19T08:43:18.311Z,168.22
2022-10-19T08:44:18.293Z,168.05
2022-10-19T08:45:18.274Z,168.22
2022-10-19T08:46:18.278Z,170.11
2022-10-19T08:47:22.320Z,171.68
2022-10-19T08:48:18.258Z,170.80
2022-10-19T08:49:18.239Z,171.15
2022-10-19T08:50:18.263Z,172.75
2022-10-19T08:51:18.208Z,174.74
2022-10-19T08:52:18.192Z,176.03
2022-10-19T08:53:18.485Z,176.96
2022-10-19T08:54:18.183Z,175.66
2022-10-19T08:55:20.526Z,175.47
2022-10-19T08:56:26.803Z,176.77
2022-10-19T08:57:19.184Z,176.77
2022-10-19T08:58:18.135Z,177.71
2022-10-19T08:59:18.328Z,178.09
2022-10-19T09:00:18.125Z,180.21
2022-10-19T09:01:18.106Z,180.80
2022-10-19T09:02:18.084Z,181.98
2022-10-19T09:03:23.134Z,182.98
2022-10-19T09:04:19.273Z,185.21
2022-10-19T09:05:18.058Z,186.57
2022-10-19T09:06:18.122Z,186.47
2022-10-19T09:07:18.034Z,187.00
2022-10-19T09:08:18.036Z,188.18
2022-10-19T09:09:18.030Z,187.96
2022-10-19T09:10:18.226Z,188.61
2022-10-19T09:11:18.013Z,188.50
2022-10-19T09:12:17.979Z,187.53
2022-10-19T09:13:17.973Z,187.10
2022-10-19T09:14:17.963Z,187.85
2022-10-19T09:15:17.973Z,188.83
2022-10-19T09:16:18.133Z,188.29
2022-10-19T09:17:18.086Z,187.21
2022-10-19T09:18:25.425Z,186.68
2022-10-19T09:19:25.425Z,186.57
2022-10-19T09:20:25.411Z,187.10
2022-10-19T09:21:33.356Z,186.68
2022-10-19T09:22:26.321Z,185.31
2022-10-19T09:23:26.394Z,186.24
2022-10-19T09:24:25.358Z,185.62
2022-10-19T09:25:25.367Z,185.31
2022-10-19T09:26:25.340Z,186.04
2022-10-19T09:27:26.550Z,184.99
2022-10-19T09:28:29.179Z,184.89
2022-10-19T09:30:10.368Z,221.45
2022-10-19T09:31:10.338Z,211.74
2022-10-19T09:32:10.536Z,206.54
2022-10-19T09:33:15.160Z,204.10
2022-10-19T09:34:11.324Z,201.96
2022-10-19T09:35:10.287Z,200.60
2022-10-19T09:36:18.316Z,197.94
2022-10-19T09:37:15.991Z,200.85
2022-10-19T09:38:11.260Z,199.26
2022-10-19T09:39:10.241Z,200.60
2022-10-19T09:40:10.237Z,198.66
2022-10-19T09:41:10.230Z,196.75
2022-10-19T09:42:10.232Z,196.40
2022-10-19T09:43:10.367Z,198.54
2022-10-19T09:44:10.192Z,196.05
2022-10-19T09:45:10.178Z,199.26
2022-10-19T09:46:19.468Z,199.26
2022-10-19T09:47:13.667Z,199.26
2022-10-19T09:48:13.126Z,199.75
2022-10-19T09:49:10.308Z,201.59
2022-10-19T09:50:10.133Z,200.48
2022-10-19T09:51:10.115Z,199.75
2022-10-19T09:52:10.107Z,203.21
2022-10-19T09:53:10.092Z,205.76
2022-10-19T09:54:10.081Z,206.93
2022-10-19T09:55:10.316Z,206.15
2022-10-19T09:56:10.062Z,207.45
2022-10-19T09:57:10.047Z,210.24
2022-10-19T09:58:10.042Z,212.28
2022-10-19T09:59:10.017Z,211.46
2022-10-19T10:00:10.014Z,213.39
2022-10-19T10:01:10.364Z,214.22
2022-10-19T10:02:09.999Z,212.01
2022-10-19T10:03:09.987Z,215.07
2022-10-19T10:04:10.004Z,214.50
2022-10-19T10:05:09.956Z,215.77
2022-10-19T10:06:10.132Z,216.63
2022-10-19T10:07:09.946Z,219.38
2022-10-19T10:08:09.927Z,220.71
2022-10-19T10:09:09.954Z,224.18
2022-10-19T10:10:09.909Z,225.41
2022-10-19T10:11:10.085Z,228.39
2022-10-19T10:12:09.892Z,233.59
2022-10-19T10:13:09.877Z,239.39
2022-10-19T10:14:10.128Z,244.01
2022-10-19T10:15:09.846Z,249.96
2022-10-19T10:16:09.845Z,252.85
2022-10-19T10:17:10.013Z,253.83
2022-10-19T10:18:09.816Z,254.23
2022-10-19T10:19:09.807Z,253.83
2022-10-19T10:20:09.806Z,251.11
2022-10-19T10:21:09.785Z,253.83
2022-10-19T10:22:10.261Z,260.07
2022-10-19T10:23:09.769Z,260.48
2022-10-19T10:24:09.766Z,261.52
2022-10-19T10:25:09.751Z,268.36
2022-10-19T10:26:09.737Z,274.65
2022-10-19T10:27:09.726Z,281.01
2022-10-19T10:28:09.908Z,285.90
2022-10-19T10:29:09.718Z,291.75
2022-10-19T10:30:09.717Z,294.37
2022-10-19T10:31:09.677Z,296.23
2022-10-19T10:32:09.686Z,296.23
2022-10-19T10:33:20.483Z,296.23
2022-10-19T10:34:22.611Z,297.30
2022-10-19T10:35:10.638Z,301.12
2022-10-19T10:36:09.636Z,306.75
2022-10-19T10:37:09.616Z,308.48
2022-10-19T10:38:09.607Z,308.19
2022-10-19T10:39:09.937Z,307.04
2022-10-19T10:40:09.586Z,309.06
2022-10-19T10:41:09.578Z,315.60
2022-10-19T10:42:09.556Z,322.42
2022-10-19T10:43:09.557Z,325.62
2022-10-19T10:44:09.543Z,326.27
2022-10-19T10:45:09.724Z,328.23
2022-10-19T10:46:09.702Z,330.21
2022-10-19T10:47:09.516Z,331.21
2022-10-19T10:48:09.566Z,332.22
2022-10-19T10:49:09.497Z,334.25
2022-10-19T10:50:09.485Z,332.55
2022-10-19T10:51:09.689Z,331.88
2022-10-19T10:52:09.457Z,332.22
2022-10-19T10:53:09.458Z,332.55
2022-10-19T10:54:09.456Z,332.55
2022-10-19T10:55:09.424Z,334.93
2022-10-19T10:56:09.601Z,331.55
2022-10-19T10:57:09.563Z,326.60
2022-10-19T10:58:09.385Z,327.90
2022-10-19T10:59:09.392Z,329.22
2022-10-19T11:00:09.406Z,328.89
2022-10-19T11:01:09.363Z,329.22
2022-10-19T11:02:09.784Z,329.88
2022-10-19T11:03:09.366Z,327.58
2022-10-19T11:04:09.327Z,330.55
2022-10-19T11:05:09.327Z,332.55
2022-10-19T11:06:09.304Z,329.22
2022-10-19T11:07:09.302Z,326.27
2022-10-19T11:08:09.493Z,326.60
2022-10-19T11:09:09.341Z,324.98
2022-10-19T11:10:09.265Z,319.91
2022-10-19T11:11:09.259Z,315.00
2022-10-19T11:12:09.247Z,309.64
2022-10-19T11:13:09.223Z,307.33
2022-10-19T11:14:09.400Z,306.18
2022-10-19T11:15:09.237Z,310.82
2022-10-19T11:16:09.538Z,315.60
2022-10-19T11:17:09.191Z,319.29
2022-10-19T11:18:09.176Z,316.52
2022-10-19T11:19:09.195Z,316.52
2022-10-19T11:20:09.160Z,313.49
2022-10-19T11:21:09.145Z,310.82
2022-10-19T11:22:09.328Z,316.82
2022-10-19T11:23:09.136Z,326.27
2022-10-19T11:24:09.107Z,332.89
2022-10-19T11:25:09.113Z,333.91
2022-10-19T11:26:09.086Z,338.39
2022-10-19T11:27:09.301Z,344.79
2022-10-19T11:28:09.072Z,346.61
2022-10-19T11:29:09.068Z,349.93
2022-10-19T11:30:09.056Z,352.57
2022-10-19T11:31:09.045Z,353.71
2022-10-19T11:32:09.024Z,351.43
2022-10-19T11:33:09.254Z,351.81
2022-10-19T11:34:09.016Z,351.06
2022-10-19T11:35:08.994Z,346.24
2022-10-19T11:36:08.984Z,349.93
2022-10-19T11:37:08.981Z,352.95
2022-10-19T11:38:29.607Z,360.31
2022-10-19T11:39:10.166Z,363.90
2022-10-19T11:40:08.952Z,366.34
2022-10-19T11:41:24.373Z,369.23
2022-10-19T11:42:09.937Z,370.06
2022-10-19T11:43:08.940Z,368.40
2022-10-19T11:46:26.044Z,395.98
2022-10-19T11:47:25.849Z,380.39
2022-10-19T11:48:25.831Z,370.06
2022-10-19T11:49:26.051Z,367.99
2022-10-19T11:50:27.173Z,367.57
2022-10-19T11:51:25.801Z,361.10
2022-10-19T11:52:25.781Z,360.70
2022-10-19T11:53:25.776Z,361.50
2022-10-19T11:54:25.764Z,356.39
2022-10-19T11:55:25.919Z,356.01
2022-10-19T11:56:35.067Z,359.52
2022-10-19T11:57:26.731Z,361.50
2022-10-19T11:58:25.743Z,361.90
2022-10-19T11:59:25.706Z,358.34
2022-10-19T12:00:38.618Z,356.39
2022-10-19T12:01:26.700Z,354.85
2022-10-19T12:02:25.714Z,353.33
2022-10-19T12:03:25.661Z,353.71
2022-10-19T12:04:25.663Z,357.56
2022-10-19T12:05:25.641Z,357.95
2022-10-19T12:06:25.850Z,359.13
2022-10-19T12:07:25.631Z,360.70
2022-10-19T12:08:25.636Z,356.01
2022-10-19T12:09:25.626Z,353.71
2022-10-19T12:10:25.601Z,355.62
2022-10-19T12:11:25.587Z,356.39
2022-10-19T12:12:25.840Z,357.56
2022-10-19T12:13:25.562Z,357.95
2022-10-19T12:14:25.552Z,358.73
2022-10-19T12:15:25.541Z,358.34
2022-10-19T12:16:25.561Z,359.13
2022-10-19T12:17:25.529Z,361.10
2022-10-19T12:18:25.681Z,361.50
2022-10-19T12:19:25.503Z,362.30
2022-10-19T12:20:25.490Z,358.73
2022-10-19T12:21:25.478Z,354.47
2022-10-19T12:22:25.468Z,350.68
2022-10-19T12:23:25.866Z,352.95
2022-10-19T12:24:25.611Z,355.24
2022-10-19T12:25:25.431Z,356.78
2022-10-19T12:26:25.414Z,359.13
2022-10-19T12:27:25.422Z,364.71
2022-10-19T12:28:25.410Z,365.93
2022-10-19T12:29:25.545Z,365.53
2022-10-19T12:30:25.391Z,362.70
2022-10-19T12:31:25.365Z,359.52
2022-10-19T12:32:25.358Z,362.30
2022-10-19T12:33:25.341Z,365.93
2022-10-19T12:34:25.335Z,367.99
2022-10-19T12:35:25.531Z,370.90
2022-10-19T12:36:25.310Z,373.01
2022-10-19T12:37:25.303Z,376.43
2022-10-19T12:38:25.302Z,380.83
2022-10-19T12:39:25.280Z,380.39
2022-10-19T12:40:25.280Z,377.30
2022-10-19T12:41:25.470Z,376.86
2022-10-19T12:42:25.249Z,380.61